Time;durP1;ratioP1;P1;durP2;ratioP2;P2;SDS_P1;SDS_P2;PMS_P1;PMS_P2;Temp;Humidity;BMP_temperature;BMP_pressure;BME280_temperature;BME280_humidity;BME280_pressure;Samples;Min_cycle;Max_cycle;Signal;HPM_P1;HPM_P2
2023/09/24 00:01:42;;;;;;;;;6.00;4.00;;;;;26.60;38.99;102143.63;5077881;28;45375;-72
2023/09/24 00:04:09;;;;;;;;;6.67;5.00;;;;;26.61;38.80;102158.66;5074247;27;45261;-72
2023/09/24 00:06:34;;;;;;;;;5.00;5.00;;;;;26.60;39.61;102153.47;5077604;28;47350;-72
2023/09/24 00:08:59;;;;;;;;;7.00;5.00;;;;;26.62;39.51;102159.50;5078319;27;45386;-72
2023/09/24 00:11:25;;;;;;;;;6.00;5.00;;;;;26.55;39.42;102146.00;5064865;28;45354;-72
2023/09/24 00:13:50;;;;;;;;;5.33;5.33;;;;;26.61;38.93;102153.31;5064608;28;45534;-72
2023/09/24 00:16:15;;;;;;;;;6.33;4.33;;;;;26.31;37.19;102117.69;5056878;28;46159;-74
2023/09/24 00:18:41;;;;;;;;;8.00;5.00;;;;;26.41;38.00;102143.09;5057427;28;45481;-73
2023/09/24 00:21:06;;;;;;;;;5.67;5.67;;;;;26.36;37.70;102128.63;5056362;28;45454;-73
2023/09/24 00:23:32;;;;;;;;;5.00;5.00;;;;;26.38;38.44;102127.47;5046116;28;45519;-73
2023/09/24 00:25:58;;;;;;;;;6.00;5.00;;;;;26.43;38.72;102132.25;5070197;28;46967;-72
2023/09/24 00:28:24;;;;;;;;;5.00;4.67;;;;;26.43;38.82;102132.25;5062002;28;45466;-73
2023/09/24 00:30:52;;;;;;;;;7.00;6.00;;;;;26.36;38.78;102120.63;5056411;28;45311;-73
2023/09/24 00:33:18;;;;;;;;;7.00;5.00;;;;;26.47;39.08;102133.56;5045848;28;45316;-73
2023/09/24 00:35:44;;;;;;;;;7.00;7.00;;;;;26.49;38.68;102125.41;5056886;28;47180;-71
2023/09/24 00:38:09;;;;;;;;;6.00;6.00;;;;;26.43;38.82;102131.41;5045965;28;45418;-71
2023/09/24 00:40:35;;;;;;;;;7.00;5.33;;;;;26.43;38.70;102131.41;5056251;28;45838;-72
2023/09/24 00:43:00;;;;;;;;;10.00;6.00;;;;;26.49;38.55;102141.41;5057886;28;45339;-72
2023/09/24 00:45:25;;;;;;;;;5.33;5.33;;;;;26.51;38.57;102142.91;5057963;28;46012;-72
2023/09/24 00:47:52;;;;;;;;;4.67;4.00;;;;;26.51;38.71;102145.56;5056937;28;45439;-71
2023/09/24 00:50:18;;;;;;;;;7.00;4.00;;;;;26.47;38.83;102130.06;5056436;28;45436;-72
2023/09/24 00:52:45;;;;;;;;;8.00;5.00;;;;;26.53;39.44;102140.03;5056094;28;45565;-72
2023/09/24 00:55:13;;;;;;;;;6.00;4.00;;;;;26.41;38.73;102126.25;5057576;28;45392;-72
2023/09/24 00:57:40;;;;;;;;;5.33;5.33;;;;;26.49;38.76;102136.88;5052176;28;45400;-72
2023/09/24 01:00:11;;;;;;;;;3.67;3.67;;;;;26.56;39.47;102149.53;5059018;27;45403;-72
2023/09/24 01:02:37;;;;;;;;;5.00;4.00;;;;;26.56;39.34;102154.84;5055580;28;45329;-72
2023/09/24 01:05:03;;;;;;;;;6.00;5.00;;;;;26.57;39.55;102160.00;5058450;27;46210;-72
2023/09/24 01:07:31;;;;;;;;;5.00;4.00;;;;;26.20;39.11;102098.41;5050335;28;46031;-72
2023/09/24 01:09:57;;;;;;;;;6.00;5.00;;;;;26.57;39.65;102160.00;5058684;28;45517;-72
2023/09/24 01:12:23;;;;;;;;;4.67;4.67;;;;;26.59;38.98;102155.34;5059967;28;45487;-72
2023/09/24 01:14:49;;;;;;;;;6.33;4.67;;;;;26.43;39.21;102124.25;5059067;28;45427;-72
2023/09/24 01:17:15;;;;;;;;;6.00;5.00;;;;;26.58;39.10;102145.66;5059264;28;45512;-72
2023/09/24 01:19:40;;;;;;;;;6.00;5.00;;;;;26.56;39.02;102141.50;5059036;28;45376;-72
2023/09/24 01:22:07;;;;;;;;;5.33;5.33;;;;;26.57;39.46;102144.00;5056947;28;45454;-72
2023/09/24 01:24:32;;;;;;;;;3.33;3.00;;;;;26.59;39.40;102142.00;5047507;28;46657;-72
2023/09/24 01:26:58;;;;;;;;;6.00;4.00;;;;;26.59;39.70;102139.31;5056324;28;45371;-70
2023/09/24 01:29:24;;;;;;;;;3.67;2.67;;;;;26.51;39.83;102128.72;5047385;28;45443;-72
2023/09/24 01:31:50;;;;;;;;;6.33;5.00;;;;;26.58;39.65;102137.66;5069766;28;45394;-73
2023/09/24 01:34:16;;;;;;;;;5.00;2.00;;;;;26.57;39.48;102140.50;5056972;28;45402;-72
2023/09/24 01:36:41;;;;;;;;;6.33;5.00;;;;;26.15;38.80;102077.59;5056842;28;45406;-72
2023/09/24 01:39:06;;;;;;;;;4.00;4.00;;;;;26.54;39.35;102143.53;5050330;28;45479;-72
2023/09/24 01:41:32;;;;;;;;;6.00;4.00;;;;;26.54;39.36;102148.88;5050596;28;45490;-73
2023/09/24 01:43:59;;;;;;;;;4.67;3.33;;;;;26.51;39.17;102134.88;5058404;28;47389;-73
2023/09/24 01:46:24;;;;;;;;;6.67;5.00;;;;;26.51;38.96;102139.38;5062610;27;45288;-73
2023/09/24 01:48:54;;;;;;;;;5.00;5.00;;;;;26.49;38.53;102150.22;5057321;28;45373;-72
2023/09/24 01:51:20;;;;;;;;;4.33;4.33;;;;;26.50;38.96;102151.06;5057282;28;45497;-72
2023/09/24 01:53:46;;;;;;;;;6.00;5.33;;;;;26.43;38.71;102145.59;5053640;28;46112;-72
2023/09/24 01:56:13;;;;;;;;;6.00;4.33;;;;;26.46;39.18;102152.44;5056670;28;45569;-72
2023/09/24 01:58:38;;;;;;;;;3.00;3.00;;;;;26.48;38.98;102153.09;5048176;28;45442;-72
2023/09/24 02:01:04;;;;;;;;;4.67;4.67;;;;;26.46;39.14;102150.59;5057175;28;45498;-73
2023/09/24 02:03:30;;;;;;;;;4.00;4.00;;;;;26.43;39.04;102145.59;5056755;28;45913;-72
2023/09/24 02:05:55;;;;;;;;;5.00;5.00;;;;;26.44;38.97;102144.59;5057360;28;45409;-72
2023/09/24 02:08:21;;;;;;;;;6.67;4.00;;;;;26.45;38.83;102154.28;5056136;28;45420;-72
2023/09/24 02:10:47;;;;;;;;;4.00;4.00;;;;;26.43;38.42;102161.59;5058041;28;45410;-72
2023/09/24 02:13:14;;;;;;;;;4.00;3.00;;;;;26.41;38.97;102160.94;5055707;28;47108;-72
2023/09/24 02:15:40;;;;;;;;;5.00;3.33;;;;;26.41;38.76;102155.63;5057326;28;45403;-71
2023/09/24 02:18:05;;;;;;;;;3.00;3.00;;;;;26.41;38.27;102156.41;5045760;28;45392;-73
2023/09/24 02:23:00;;;;;;;;;3.67;3.67;;;;;26.42;38.21;102135.91;5063704;28;45390;-73
2023/09/24 02:25:28;;;;;;;;;3.00;3.00;;;;;26.41;38.72;102136.94;5074669;27;45277;-73
2023/09/24 02:27:55;;;;;;;;;4.33;4.00;;;;;26.28;38.55;102122.34;5064430;28;45350;-73
2023/09/24 02:30:22;;;;;;;;;7.00;4.00;;;;;26.39;38.78;102134.44;5059729;27;45880;-73
2023/09/24 02:32:48;;;;;;;;;3.33;3.00;;;;;26.31;38.31;102128.34;5064777;28;46207;-72
2023/09/24 02:35:14;;;;;;;;;6.00;3.00;;;;;26.38;38.19;102142.63;5075477;27;45439;-73
2023/09/24 02:37:44;;;;;;;;;5.00;5.00;;;;;26.38;38.71;102134.63;5070025;27;45366;-73
2023/09/24 02:40:13;;;;;;;;;3.00;3.00;;;;;26.28;38.18;102130.34;5071515;28;45368;-73
2023/09/24 02:42:39;;;;;;;;;5.67;5.00;;;;;26.37;38.43;102146.28;5074381;27;46148;-73
2023/09/24 02:45:08;;;;;;;;;4.67;3.00;;;;;26.33;38.10;102143.16;5072128;27;45319;-73
2023/09/24 02:47:34;;;;;;;;;3.00;3.00;;;;;26.36;38.25;102145.47;5056202;28;45350;-72
2023/09/24 02:49:59;;;;;;;;;4.00;4.00;;;;;26.35;38.45;102142.97;5055189;28;45309;-72
2023/09/24 02:52:25;;;;;;;;;7.00;4.33;;;;;26.36;38.49;102144.66;5056269;28;47378;-72
2023/09/24 02:54:50;;;;;;;;;4.00;4.00;;;;;26.35;38.54;102142.97;5053195;28;45213;-73
2023/09/24 02:57:15;;;;;;;;;2.33;1.67;;;;;26.33;38.35;102137.84;5056527;28;45380;-72
2023/09/24 02:59:41;;;;;;;;;3.33;3.33;;;;;26.34;38.39;102136.81;5056363;28;45454;-72
2023/09/24 03:02:06;;;;;;;;;4.67;4.67;;;;;26.31;38.61;102139.03;5056392;28;45361;-72
2023/09/24 03:04:32;;;;;;;;;3.00;3.00;;;;;26.01;37.95;102087.22;5055969;28;45445;-72
2023/09/24 03:06:57;;;;;;;;;4.00;4.00;;;;;26.33;38.59;102139.66;5056061;28;45386;-72
2023/09/24 03:09:23;;;;;;;;;5.00;3.67;;;;;26.32;38.27;102144.16;5051539;28;45511;-72
2023/09/24 03:11:49;;;;;;;;;3.67;2.33;;;;;26.26;38.22;102129.69;5045649;28;47186;-72
2023/09/24 03:14:14;;;;;;;;;2.00;2.00;;;;;26.28;38.55;102138.34;5054332;28;45451;-72
2023/09/24 03:16:39;;;;;;;;;2.67;2.67;;;;;26.25;38.58;102128.06;5056215;28;45323;-72
2023/09/24 03:19:05;;;;;;;;;5.33;4.00;;;;;26.27;38.54;102136.69;5056821;28;45500;-72
2023/09/24 03:21:30;;;;;;;;;3.33;3.00;;;;;26.31;38.16;102137.16;5055666;28;45648;-73
2023/09/24 03:23:57;;;;;;;;;4.67;4.33;;;;;26.31;38.53;102136.34;5070891;28;45521;-72
2023/09/24 03:26:23;;;;;;;;;5.00;3.67;;;;;26.20;37.95;102121.59;5065800;28;45360;-72
2023/09/24 03:28:48;;;;;;;;;5.33;3.67;;;;;26.29;38.32;102139.19;5053047;28;45398;-73
2023/09/24 03:31:14;;;;;;;;;7.00;5.33;;;;;26.30;38.09;102143.53;5064145;28;45953;-72
2023/09/24 03:33:40;;;;;;;;;3.00;3.00;;;;;26.28;38.26;102140.19;5067194;28;45375;-72
2023/09/24 03:36:07;;;;;;;;;3.67;3.67;;;;;26.21;37.58;102136.56;5075595;27;45378;-73
2023/09/24 03:38:34;;;;;;;;;3.67;3.67;;;;;26.19;38.10;102126.09;5075132;27;45546;-72
2023/09/24 03:40:59;;;;;;;;;4.00;3.00;;;;;26.29;38.06;102139.19;5065838;27;46348;-72
2023/09/24 03:43:25;;;;;;;;;3.33;3.00;;;;;26.24;38.31;102139.72;5069956;28;45308;-72
2023/09/24 03:45:51;;;;;;;;;1.00;1.00;;;;;26.29;37.91;102144.50;5065803;27;45306;-72
2023/09/24 03:48:16;;;;;;;;;3.00;3.00;;;;;26.28;38.14;102146.34;5070385;28;45288;-72
2023/09/24 03:50:41;;;;;;;;;4.00;3.00;;;;;26.27;38.49;102135.88;5074981;28;46059;-73
2023/09/24 03:53:07;;;;;;;;;6.00;3.00;;;;;26.22;37.84;102128.41;5068893;28;45396;-72
2023/09/24 03:55:35;;;;;;;;;5.00;4.33;;;;;26.27;37.92;102134.03;5058094;28;45279;-72
2023/09/24 03:58:00;;;;;;;;;2.33;2.00;;;;;26.26;38.37;102140.38;5043841;28;45272;-72
2023/09/24 04:00:26;;;;;;;;;3.00;3.00;;;;;26.18;37.91;102124.41;5049120;28;47454;-72
2023/09/24 04:02:51;;;;;;;;;3.00;3.00;;;;;26.23;37.91;102126.56;5055378;28;45482;-72
2023/09/24 04:05:20;;;;;;;;;3.33;3.33;;;;;26.27;37.89;102138.53;5055177;28;45430;-72
2023/09/24 04:07:47;;;;;;;;;4.00;3.00;;;;;26.22;38.07;102127.56;5055217;28;45517;-72
2023/09/24 04:10:14;;;;;;;;;2.00;2.00;;;;;26.22;38.39;102130.22;5054900;28;46460;-73
2023/09/24 04:12:43;;;;;;;;;2.33;2.33;;;;;26.23;37.91;102138.03;5054135;28;45430;-73
2023/09/24 04:15:09;;;;;;;;;5.00;4.00;;;;;26.24;38.18;102136.22;5055096;28;45443;-73
2023/09/24 04:17:39;;;;;;;;;3.00;3.00;;;;;26.26;38.04;102136.84;5054604;28;45269;-72
2023/09/24 04:20:07;;;;;;;;;6.00;4.00;;;;;26.25;38.49;102136.06;5054525;28;46481;-73
2023/09/24 04:22:32;;;;;;;;;3.00;3.00;;;;;26.24;38.27;102128.22;5060770;28;45416;-72
2023/09/24 04:24:57;;;;;;;;;2.33;2.33;;;;;26.19;38.26;102123.41;5059777;28;45480;-73
2023/09/24 04:27:23;;;;;;;;;2.33;2.33;;;;;26.24;38.27;102131.72;5069965;28;45466;-71
2023/09/24 04:29:49;;;;;;;;;5.67;3.00;;;;;26.25;37.85;102129.88;5060545;28;45367;-72
2023/09/24 04:32:15;;;;;;;;;6.00;4.00;;;;;26.14;37.82;102121.28;5059518;27;45968;-73
2023/09/24 04:34:41;;;;;;;;;3.00;3.00;;;;;26.22;38.24;102128.41;5056562;28;45443;-72
2023/09/24 04:37:07;;;;;;;;;2.00;0.33;;;;;26.16;37.90;102127.25;5057663;28;45573;-73
2023/09/24 04:39:32;;;;;;;;;3.67;3.67;;;;;26.23;38.20;102146.06;5058436;28;46116;-73
2023/09/24 04:41:58;;;;;;;;;4.00;2.00;;;;;26.24;38.21;102141.56;5058797;28;45435;-73
2023/09/24 04:44:24;;;;;;;;;3.00;3.00;;;;;26.23;38.23;102146.06;5058661;28;45410;-73
2023/09/24 04:46:49;;;;;;;;;4.00;4.00;;;;;26.22;38.00;102139.06;5058869;28;45400;-73
2023/09/24 04:49:14;;;;;;;;;3.00;3.00;;;;;26.23;38.44;102143.38;5054087;28;46674;-73
2023/09/24 04:51:40;;;;;;;;;2.00;2.00;;;;;26.22;37.86;102139.06;5051225;28;45445;-71
2023/09/24 04:54:06;;;;;;;;;5.33;4.00;;;;;26.23;38.09;102142.56;5057954;28;45524;-73
2023/09/24 04:56:31;;;;;;;;;4.33;3.00;;;;;26.22;37.83;102148.91;5057699;28;45340;-72
2023/09/24 04:58:57;;;;;;;;;2.00;2.00;;;;;26.23;38.22;102155.91;5058074;28;46123;-73
2023/09/24 05:01:22;;;;;;;;;4.00;3.00;;;;;26.23;38.36;102155.91;5058063;28;45414;-72
2023/09/24 05:03:51;;;;;;;;;2.67;2.67;;;;;26.22;38.40;102155.06;5049414;28;45424;-73
2023/09/24 05:06:18;;;;;;;;;4.33;2.33;;;;;26.18;37.83;102148.41;5055106;28;45395;-73
2023/09/24 05:08:44;;;;;;;;;2.67;2.67;;;;;26.22;37.82;102152.41;5056730;28;46272;-73
2023/09/24 05:11:13;;;;;;;;;3.00;3.00;;;;;26.21;38.38;102155.22;5058083;28;45461;-73
2023/09/24 05:13:40;;;;;;;;;5.00;3.33;;;;;26.23;38.22;102158.56;5057969;28;46232;-73
2023/09/24 05:16:05;;;;;;;;;4.00;4.00;;;;;26.23;38.11;102155.91;5058522;28;45360;-73
2023/09/24 05:18:34;;;;;;;;;2.00;2.00;;;;;26.14;38.07;102149.78;5057683;28;47235;-72
2023/09/24 05:20:59;;;;;;;;;2.00;2.00;;;;;26.21;37.85;102158.75;5058130;28;45488;-72
2023/09/24 05:23:25;;;;;;;;;2.00;2.00;;;;;26.12;38.37;102143.81;5052823;28;45434;-72
2023/09/24 05:25:53;;;;;;;;;5.00;3.00;;;;;26.21;37.98;102165.91;5068534;28;45534;-73
2023/09/24 05:28:18;;;;;;;;;2.33;2.33;;;;;26.08;37.86;102140.66;5067123;28;47098;-73
2023/09/24 05:30:54;;;;;;;;;2.00;2.00;;;;;26.20;37.94;102162.44;5076680;27;45396;-72
2023/09/24 05:33:20;;;;;;;;;4.00;4.00;;;;;26.20;38.09;102158.94;5076237;27;46113;-72
2023/09/24 05:35:50;;;;;;;;;3.33;3.33;;;;;26.20;38.24;102162.44;5063026;28;45672;-72
2023/09/24 05:38:16;;;;;;;;;2.33;2.33;;;;;26.20;37.94;102161.59;5076651;27;47176;-72
2023/09/24 05:40:42;;;;;;;;;4.67;3.00;;;;;26.18;37.85;102161.75;5065629;28;45757;-72
2023/09/24 05:43:08;;;;;;;;;2.33;2.33;;;;;26.21;38.15;102163.22;5055694;27;45355;-72
2023/09/24 05:45:33;;;;;;;;;5.00;3.00;;;;;26.20;38.10;102157.09;5056872;28;45490;-73
2023/09/24 05:47:59;;;;;;;;;3.67;3.00;;;;;26.16;37.84;102150.44;5056976;28;45598;-73
2023/09/24 05:50:24;;;;;;;;;3.00;3.00;;;;;26.13;37.72;102158.78;5046911;28;45439;-73
2023/09/24 05:52:49;;;;;;;;;4.00;3.00;;;;;26.18;38.41;102165.25;5054888;28;45995;-72
2023/09/24 05:55:15;;;;;;;;;1.00;1.00;;;;;26.18;38.34;102157.25;5056906;28;45572;-73
2023/09/24 05:57:40;;;;;;;;;2.00;2.00;;;;;26.09;37.78;102138.81;5055556;28;47749;-72
2023/09/24 06:00:08;;;;;;;;;4.00;2.00;;;;;26.11;37.81;102144.81;5054029;28;45404;-73
2023/09/24 06:02:34;;;;;;;;;3.00;3.00;;;;;26.17;38.53;102155.63;5057088;28;45314;-72
2023/09/24 06:04:59;;;;;;;;;4.00;2.67;;;;;26.18;38.20;102162.59;5057318;28;45372;-72
2023/09/24 06:07:28;;;;;;;;;4.00;3.00;;;;;26.18;38.25;102165.25;5056476;28;46201;-73
2023/09/24 06:09:54;;;;;;;;;4.67;4.00;;;;;26.10;38.05;102151.97;5056982;28;45406;-72
2023/09/24 06:12:20;;;;;;;;;2.00;2.00;;;;;26.20;38.24;102172.25;5055996;28;45334;-73
2023/09/24 06:14:45;;;;;;;;;2.67;2.67;;;;;26.20;38.25;102173.09;5053896;27;45563;-72
2023/09/24 06:17:11;;;;;;;;;5.00;3.67;;;;;26.20;38.12;102178.44;5050728;28;46077;-73
2023/09/24 06:19:36;;;;;;;;;2.33;2.33;;;;;26.20;37.76;102177.59;5054011;27;45449;-72
2023/09/24 06:22:01;;;;;;;;;3.00;3.00;;;;;26.22;38.03;102178.25;5049442;28;45514;-73
2023/09/24 06:24:27;;;;;;;;;3.00;3.00;;;;;26.22;38.32;102170.25;5050159;28;45625;-73
2023/09/24 06:26:52;;;;;;;;;3.00;3.00;;;;;26.14;38.08;102161.28;5051690;28;45328;-73
2023/09/24 06:29:18;;;;;;;;;3.00;3.00;;;;;26.23;37.71;102170.06;5054777;28;45271;-72
2023/09/24 06:31:43;;;;;;;;;5.33;4.00;;;;;26.14;38.33;102152.47;5056543;28;45335;-73
2023/09/24 06:34:09;;;;;;;;;4.00;3.00;;;;;26.24;37.86;102179.72;5056203;28;45449;-73
2023/09/24 06:36:34;;;;;;;;;3.00;3.00;;;;;26.26;38.20;102182.22;5068483;28;46085;-73
2023/09/24 06:39:00;;;;;;;;;3.00;3.00;;;;;26.17;37.63;102166.28;5075630;27;45319;-73
2023/09/24 06:41:25;;;;;;;;;5.00;2.67;;;;;26.27;37.70;102182.06;5075168;27;45728;-73
2023/09/24 06:43:51;;;;;;;;;2.33;2.33;;;;;26.27;38.14;102183.88;5074727;28;45342;-73
2023/09/24 06:46:16;;;;;;;;;2.67;2.67;;;;;26.29;37.92;102187.19;5072071;27;47116;-72
2023/09/24 06:48:42;;;;;;;;;3.00;3.00;;;;;26.22;38.01;102176.41;5053296;27;45344;-72
2023/09/24 06:51:09;;;;;;;;;2.00;2.00;;;;;26.29;38.20;102189.88;5055073;28;45446;-73
2023/09/24 06:53:37;;;;;;;;;2.00;2.00;;;;;26.31;37.68;102193.19;5052236;28;45413;-73
2023/09/24 06:56:07;;;;;;;;;3.00;3.00;;;;;26.20;37.59;102175.78;5055672;28;47116;-73
2023/09/24 06:58:33;;;;;;;;;3.00;3.00;;;;;26.25;38.16;102183.22;5061409;28;45577;-72
2023/09/24 07:01:00;;;;;;;;;3.00;3.00;;;;;26.32;38.22;102192.19;5062254;27;45516;-72
2023/09/24 07:03:26;;;;;;;;;2.33;2.00;;;;;26.35;38.10;102194.50;5042526;28;45366;-72
2023/09/24 07:05:51;;;;;;;;;2.00;2.00;;;;;26.31;38.27;102201.19;5049909;28;46123;-73
2023/09/24 07:08:17;;;;;;;;;3.67;2.33;;;;;26.38;37.99;102206.66;5055419;28;45415;-72
2023/09/24 07:10:42;;;;;;;;;3.00;3.00;;;;;26.39;37.97;102205.63;5055724;28;45504;-74
2023/09/24 07:13:08;;;;;;;;;2.00;2.00;;;;;26.27;37.69;102192.72;5055483;27;45609;-72
2023/09/24 07:15:33;;;;;;;;;2.67;2.67;;;;;26.42;37.86;102213.28;5045756;28;45368;-73
2023/09/24 07:17:59;;;;;;;;;3.00;3.00;;;;;26.43;37.69;102206.13;5055539;28;45232;-72
2023/09/24 07:20:24;;;;;;;;;3.67;2.33;;;;;26.44;37.83;102208.63;5061614;28;45481;-72
2023/09/24 07:22:50;;;;;;;;;2.00;2.00;;;;;26.46;38.24;102211.97;5052322;28;45467;-72
2023/09/24 07:25:15;;;;;;;;;3.67;3.00;;;;;26.40;38.25;102194.81;5047890;28;46040;-73
2023/09/24 07:27:41;;;;;;;;;3.33;3.00;;;;;26.43;38.32;102198.13;5052519;28;45388;-73
2023/09/24 07:30:08;;;;;;;;;2.00;2.00;;;;;26.46;38.37;102195.13;5055381;28;45355;-72
2023/09/24 07:32:34;;;;;;;;;1.33;1.33;;;;;26.52;37.78;102194.41;5055287;28;45534;-72
2023/09/24 07:35:00;;;;;;;;;3.00;3.00;;;;;26.49;38.07;102186.78;5054778;28;46269;-73
2023/09/24 07:37:25;;;;;;;;;4.00;2.00;;;;;26.54;37.85;102195.09;5055111;27;45392;-73
2023/09/24 07:39:51;;;;;;;;;4.00;2.33;;;;;26.56;37.96;102210.91;5055319;28;45432;-73
2023/09/24 07:42:17;;;;;;;;;2.00;2.00;;;;;26.57;38.13;102200.03;5047948;28;45495;-73
2023/09/24 07:44:43;;;;;;;;;3.33;2.00;;;;;26.54;37.85;102192.41;5069657;27;45450;-73
2023/09/24 07:47:08;;;;;;;;;5.00;3.33;;;;;26.61;37.82;102200.53;5048493;28;45389;-73
2023/09/24 07:49:34;;;;;;;;;2.67;2.67;;;;;26.64;37.99;102202.84;5074540;28;45803;-73
2023/09/24 07:52:00;;;;;;;;;3.33;3.00;;;;;26.59;38.16;102181.19;5074925;28;45208;-73
2023/09/24 07:54:27;;;;;;;;;2.00;2.00;;;;;26.69;37.63;102188.94;5073298;27;46304;-74
2023/09/24 07:56:53;;;;;;;;;3.00;3.00;;;;;26.68;38.18;102196.13;5058590;28;45387;-72
2023/09/24 07:59:19;;;;;;;;;3.00;2.00;;;;;26.63;37.54;102188.66;5061479;28;45508;-73
2023/09/24 08:01:44;;;;;;;;;4.67;3.00;;;;;26.76;37.93;102213.91;5058640;28;45356;-73
2023/09/24 08:04:11;;;;;;;;;3.00;2.00;;;;;26.81;37.76;102202.69;5049190;28;47163;-74
2023/09/24 08:06:37;;;;;;;;;3.33;3.33;;;;;26.81;37.92;102198.19;5049724;28;45384;-73
2023/09/24 08:09:06;;;;;;;;;2.00;2.00;;;;;26.93;37.98;102203.91;5059346;28;45295;-73
2023/09/24 08:11:32;;;;;;;;;2.00;2.00;;;;;27.01;37.71;102212.88;5059164;28;45328;-73
2023/09/24 08:13:58;;;;;;;;;3.00;3.00;;;;;27.01;37.82;102211.00;5059619;28;46089;-73
2023/09/24 08:16:23;;;;;;;;;2.00;2.00;;;;;27.08;37.59;102213.81;5050428;28;45321;-73
2023/09/24 08:18:49;;;;;;;;;2.33;2.33;;;;;27.09;37.77;102202.09;5059742;28;45343;-73
2023/09/24 08:21:15;;;;;;;;;2.00;2.00;;;;;27.13;37.90;102202.59;5058931;28;46067;-73
2023/09/24 08:23:40;;;;;;;;;2.00;2.00;;;;;27.14;37.96;102210.44;5060548;28;47003;-73
2023/09/24 08:26:05;;;;;;;;;2.00;2.00;;;;;27.18;37.51;102208.22;5078217;28;45363;-73
2023/09/24 08:28:31;;;;;;;;;2.00;2.00;;;;;27.19;37.15;102204.56;5075730;28;45339;-73
2023/09/24 08:30:57;;;;;;;;;4.00;2.33;;;;;27.20;37.31;102214.22;5071596;28;45433;-73
2023/09/24 08:33:22;;;;;;;;;3.00;3.00;;;;;27.19;37.95;102212.56;5057550;28;46090;-73
2023/09/24 08:35:47;;;;;;;;;2.00;2.00;;;;;27.14;37.90;102196.25;5057722;28;45297;-73
2023/09/24 08:38:14;;;;;;;;;2.00;2.00;;;;;27.22;37.30;102219.41;5057440;28;45397;-73
2023/09/24 08:40:40;;;;;;;;;2.67;2.00;;;;;27.22;38.25;102206.84;5077753;28;45280;-73
2023/09/24 08:43:09;;;;;;;;;2.00;2.00;;;;;27.22;37.31;102201.50;5075094;28;46234;-73
2023/09/24 08:45:35;;;;;;;;;4.00;2.67;;;;;27.22;38.06;102198.81;5072204;27;45933;-73
2023/09/24 08:48:07;;;;;;;;;1.00;1.00;;;;;27.22;37.69;102196.16;5076569;28;45495;-73
2023/09/24 08:50:36;;;;;;;;;2.00;2.00;;;;;27.22;37.55;102190.81;5077446;27;45505;-73
2023/09/24 08:53:05;;;;;;;;;2.00;2.00;;;;;27.23;37.42;102189.81;5071699;27;47376;-72
2023/09/24 08:55:31;;;;;;;;;2.00;2.00;;;;;27.22;38.07;102188.13;5077215;27;45325;-73
2023/09/24 08:57:56;;;;;;;;;1.00;1.00;;;;;27.20;37.84;102182.16;5065349;27;46395;-73
2023/09/24 09:00:22;;;;;;;;;2.00;2.00;;;;;27.15;37.27;102179.19;5077150;28;45534;-72
2023/09/24 09:02:47;;;;;;;;;3.00;2.00;;;;;27.16;37.59;102189.72;5075619;28;46058;-73
2023/09/24 09:05:22;;;;;;;;;1.00;1.00;;;;;27.26;37.50;102201.97;5065639;27;45331;-73
2023/09/24 09:07:56;;;;;;;;;2.00;1.00;;;;;27.23;37.49;102192.47;5068324;28;45445;-73
2023/09/24 09:10:32;;;;;;;;;3.00;3.00;;;;;27.22;37.92;102187.34;5071216;27;45511;-73
2023/09/24 09:13:14;;;;;;;;;3.00;3.00;;;;;27.30;37.48;102195.25;5075853;27;45971;-73
2023/09/24 09:15:41;;;;;;;;;2.67;2.00;;;;;27.29;37.57;102191.75;5056953;27;45385;-72
2023/09/24 09:18:22;;;;;;;;;1.00;1.00;;;;;27.31;37.32;102188.91;5077223;27;45600;-71
2023/09/24 09:20:49;;;;;;;;;3.67;3.00;;;;;27.31;37.34;102182.72;5059650;27;45460;-73
2023/09/24 09:23:17;;;;;;;;;3.33;2.00;;;;;27.23;37.48;102171.09;5055206;28;46341;-72
2023/09/24 09:25:52;;;;;;;;;2.00;2.00;;;;;27.29;38.10;102185.59;5070048;28;45339;-73
2023/09/24 09:28:19;;;;;;;;;1.00;1.00;;;;;27.29;38.00;102174.91;5072107;27;45551;-73
2023/09/24 09:31:04;;;;;;;;;2.33;2.33;;;;;27.29;37.96;102175.72;5076284;27;45326;-73
2023/09/24 09:33:32;;;;;;;;;2.00;2.00;;;;;27.28;38.05;102176.72;5062827;27;46342;-72
2023/09/24 09:35:58;;;;;;;;;2.33;2.33;;;;;27.29;38.01;102180.25;5056909;28;45289;-73
2023/09/24 09:38:24;;;;;;;;;2.00;2.00;;;;;27.28;37.55;102176.72;5056729;28;45397;-73
2023/09/24 09:40:55;;;;;;;;;2.00;2.00;;;;;27.32;37.97;102163.00;5057172;28;45399;-72
2023/09/24 09:43:23;;;;;;;;;3.00;3.00;;;;;27.32;37.32;102161.16;5056054;28;46144;-72
2023/09/24 09:45:50;;;;;;;;;4.33;3.00;;;;;27.32;37.51;102152.31;5062851;28;45492;-72
2023/09/24 09:48:22;;;;;;;;;3.67;3.00;;;;;27.27;37.34;102155.56;5061314;28;46623;-73
2023/09/24 09:50:50;;;;;;;;;5.33;2.67;;;;;27.25;37.78;102147.69;5056706;28;45458;-72
2023/09/24 09:53:21;;;;;;;;;2.00;2.00;;;;;27.15;38.02;102139.97;5056310;28;46330;-73
2023/09/24 09:55:50;;;;;;;;;3.00;3.00;;;;;27.22;34.67;102147.25;5057118;28;45354;-72
2023/09/24 09:58:16;;;;;;;;;1.00;1.00;;;;;27.09;33.39;102142.53;5057692;28;45407;-73
2023/09/24 10:00:41;;;;;;;;;3.00;2.00;;;;;26.88;33.17;102134.19;5056746;28;45463;-73
2023/09/24 10:03:09;;;;;;;;;3.00;3.00;;;;;26.76;32.87;102136.50;5055722;28;47016;-73
2023/09/24 10:05:36;;;;;;;;;5.67;3.00;;;;;26.59;32.71;102143.81;5056820;28;45455;-73
2023/09/24 10:08:34;;;;;;;;;3.00;3.00;;;;;26.40;32.35;102143.28;5056990;28;45325;-73
2023/09/24 10:11:01;;;;;;;;;4.33;3.00;;;;;26.20;32.86;102121.59;5049711;28;45570;-75
2023/09/24 10:13:44;;;;;;;;;4.00;2.33;;;;;26.12;32.77;102125.97;5055440;28;45620;-73
2023/09/24 10:16:25;;;;;;;;;2.00;2.00;;;;;26.01;32.72;102129.03;5058345;28;45346;-74
2023/09/24 10:19:17;;;;;;;;;1.67;1.67;;;;;25.91;32.85;102123.94;5061569;28;45281;-75
2023/09/24 10:21:44;;;;;;;;;3.67;2.00;;;;;25.81;32.58;102110.84;5051454;27;45452;-74
2023/09/24 10:24:09;;;;;;;;;1.67;1.67;;;;;25.74;32.37;102110.69;5054970;28;46387;-74
2023/09/24 10:27:02;;;;;;;;;2.00;2.00;;;;;25.61;31.99;102101.41;5055980;28;45481;-75
2023/09/24 10:29:50;;;;;;;;;2.00;2.00;;;;;25.66;32.55;102116.06;5048426;28;45360;-72
2023/09/24 10:32:17;;;;;;;;;3.67;2.00;;;;;25.58;32.49;102109.72;5047635;28;45387;-75
2023/09/24 10:37:19;;;;;;;;;2.00;2.00;;;;;25.68;33.01;102104.22;5055030;28;45473;-74
2023/09/24 10:40:09;;;;;;;;;4.67;1.67;;;;;25.82;33.45;102105.31;5053814;28;45439;-74
2023/09/24 10:42:40;;;;;;;;;5.67;2.00;;;;;25.79;33.40;102088.84;5051141;28;45590;-75
2023/09/24 10:45:15;;;;;;;;;3.00;2.00;;;;;26.01;33.86;102113.03;5052814;28;48352;-76
2023/09/24 10:47:44;;;;;;;;;3.33;2.33;;;;;26.09;33.61;102104.16;5056541;28;45284;-76
2023/09/24 10:50:17;;;;;;;;;2.33;2.00;;;;;26.17;33.83;102106.75;5056302;28;45475;-74
2023/09/24 10:52:51;;;;;;;;;4.00;3.00;;;;;26.10;33.60;102087.16;5057236;28;45449;-73
2023/09/24 10:55:27;;;;;;;;;2.00;2.00;;;;;26.32;33.89;102116.66;5050987;28;45532;-75
2023/09/24 10:57:53;;;;;;;;;3.33;2.00;;;;;26.34;33.53;102104.78;5067979;27;45359;-76
2023/09/24 11:00:20;;;;;;;;;1.00;1.00;;;;;26.32;33.82;102092.63;5062047;27;45467;-73
2023/09/24 11:02:56;;;;;;;;;2.67;2.00;;;;;26.51;34.07;102102.03;5075252;27;45457;-73
2023/09/24 11:05:22;;;;;;;;;3.00;2.00;;;;;26.52;33.46;102088.50;5074228;27;47145;-76
2023/09/24 11:07:47;;;;;;;;;1.67;1.67;;;;;26.36;33.69;102041.41;5056553;28;45452;-79
2023/09/24 11:10:24;;;;;;;;;3.00;2.00;;;;;26.66;33.77;102086.03;5058029;28;45254;-72
2023/09/24 11:12:54;;;;;;;;;3.67;1.33;;;;;26.54;33.74;102072.31;5047348;28;45288;-78
2023/09/24 11:15:21;;;;;;;;;2.67;1.33;;;;;26.66;33.74;102085.19;5051369;28;45460;-79
2023/09/24 11:17:47;;;;;;;;;3.00;2.00;;;;;26.69;33.82;102075.00;5056706;27;45343;-80
2023/09/24 11:20:17;;;;;;;;;2.00;2.00;;;;;26.80;34.18;102076.41;5063009;28;45298;-80
2023/09/24 11:22:43;;;;;;;;;2.00;1.33;;;;;26.81;34.28;102066.53;5067419;28;45485;-79
2023/09/24 11:25:13;;;;;;;;;3.67;2.67;;;;;26.87;34.55;102075.66;5064981;28;47013;-80
2023/09/24 11:27:47;;;;;;;;;3.67;1.67;;;;;26.88;34.38;102066.63;5065795;27;45346;-79
2023/09/24 11:30:15;;;;;;;;;3.00;2.00;;;;;26.82;33.86;102058.34;5054496;28;45470;-78